sensor_id;sensor_type;location;lat;lon;timestamp;pressure;altitude;pressure_sealevel;temperature;humidity
20696;BME280;10507;52.754;13.040;2023-04-30T00:00:36;101136.41;;;6.38;95.04
20696;BME280;10507;52.754;13.040;2023-04-30T00:03:04;101149.13;;;6.23;95.65
20696;BME280;10507;52.754;13.040;2023-04-30T00:05:33;101190.88;;;6.14;96.94
20696;BME280;10507;52.754;13.040;2023-04-30T00:08:01;101224.56;;;6.10;98.18
20696;BME280;10507;52.754;13.040;2023-04-30T00:10:29;101233.59;;;6.00;98.54
20696;BME280;10507;52.754;13.040;2023-04-30T00:12:57;101243.50;;;5.90;98.68
20696;BME280;10507;52.754;13.040;2023-04-30T00:15:25;101267.50;;;5.82;99.06
20696;BME280;10507;52.754;13.040;2023-04-30T00:17:53;101279.09;;;5.77;99.67
20696;BME280;10507;52.754;13.040;2023-04-30T00:20:21;101302.97;;;5.75;100.00
20696;BME280;10507;52.754;13.040;2023-04-30T00:22:50;101324.09;;;5.78;100.00
20696;BME280;10507;52.754;13.040;2023-04-30T00:25:18;101333.91;;;5.75;100.00
20696;BME280;10507;52.754;13.040;2023-04-30T00:27:46;101349.81;;;5.75;100.00
20696;BME280;10507;52.754;13.040;2023-04-30T00:30:14;101365.69;;;5.75;100.00
20696;BME280;10507;52.754;13.040;2023-04-30T00:32:42;101357.81;;;5.72;100.00
20696;BME280;10507;52.754;13.040;2023-04-30T00:35:11;101360.47;;;5.70;100.00
20696;BME280;10507;52.754;13.040;2023-04-30T00:37:39;101354.34;;;5.67;100.00
20696;BME280;10507;52.754;13.040;2023-04-30T00:40:09;101348.25;;;5.63;100.00
20696;BME280;10507;52.754;13.040;2023-04-30T00:42:37;101358.88;;;5.60;100.00
20696;BME280;10507;52.754;13.040;2023-04-30T00:45:07;101351.03;;;5.55;100.00
20696;BME280;10507;52.754;13.040;2023-04-30T00:47:34;101352.75;;;5.58;100.00
20696;BME280;10507;52.754;13.040;2023-04-30T00:50:04;101352.81;;;5.53;100.00
20696;BME280;10507;52.754;13.040;2023-04-30T00:52:32;101344.88;;;5.53;100.00
20696;BME280;10507;52.754;13.040;2023-04-30T00:55:00;101359.81;;;5.57;100.00
20696;BME280;10507;52.754;13.040;2023-04-30T00:57:32;101339.75;;;5.46;100.00
20696;BME280;10507;52.754;13.040;2023-04-30T01:00:01;101350.38;;;5.42;100.00
20696;BME280;10507;52.754;13.040;2023-04-30T01:02:29;101350.50;;;5.36;100.00
20696;BME280;10507;52.754;13.040;2023-04-30T01:04:57;101359.38;;;5.32;100.00
20696;BME280;10507;52.754;13.040;2023-04-30T01:07:25;101367.41;;;5.26;100.00
20696;BME280;10507;52.754;13.040;2023-04-30T01:09:54;101373.72;;;5.17;100.00
20696;BME280;10507;52.754;13.040;2023-04-30T01:12:30;101393.25;;;5.12;100.00
20696;BME280;10507;52.754;13.040;2023-04-30T01:15:11;101413.59;;;5.08;100.00
20696;BME280;10507;52.754;13.040;2023-04-30T01:17:45;101418.97;;;5.02;100.00
20696;BME280;10507;52.754;13.040;2023-04-30T01:20:14;101422.66;;;4.92;100.00
20696;BME280;10507;52.754;13.040;2023-04-30T01:22:45;101435.91;;;4.90;100.00
20696;BME280;10507;52.754;13.040;2023-04-30T01:25:25;101444.81;;;4.85;100.00
20696;BME280;10507;52.754;13.040;2023-04-30T01:28:04;101460.75;;;4.77;100.00
20696;BME280;10507;52.754;13.040;2023-04-30T01:30:35;101461.72;;;4.71;100.00
20696;BME280;10507;52.754;13.040;2023-04-30T01:33:03;101481.09;;;4.73;100.00
20696;BME280;10507;52.754;13.040;2023-04-30T01:35:44;101481.13;;;4.72;100.00
20696;BME280;10507;52.754;13.040;2023-04-30T01:38:24;101463.59;;;4.65;100.00
20696;BME280;10507;52.754;13.040;2023-04-30T01:40:59;101467.16;;;4.62;100.00
20696;BME280;10507;52.754;13.040;2023-04-30T01:43:38;101472.44;;;4.61;100.00
20696;BME280;10507;52.754;13.040;2023-04-30T01:46:13;101448.75;;;4.53;100.00
20696;BME280;10507;52.754;13.040;2023-04-30T01:48:49;101446.13;;;4.50;100.00
20696;BME280;10507;52.754;13.040;2023-04-30T01:51:39;101440.88;;;4.47;100.00
20696;BME280;10507;52.754;13.040;2023-04-30T01:54:11;101440.03;;;4.45;100.00
20696;BME280;10507;52.754;13.040;2023-04-30T01:56:45;101437.44;;;4.38;100.00
20696;BME280;10507;52.754;13.040;2023-04-30T01:59:16;101440.09;;;4.37;100.00
20696;BME280;10507;52.754;13.040;2023-04-30T02:01:44;101442.78;;;4.34;100.00
20696;BME280;10507;52.754;13.040;2023-04-30T02:04:11;101445.50;;;4.28;100.00
20696;BME280;10507;52.754;13.040;2023-04-30T02:06:39;101457.84;;;4.29;100.00
20696;BME280;10507;52.754;13.040;2023-04-30T02:09:07;101478.03;;;4.34;100.00
20696;BME280;10507;52.754;13.040;2023-04-30T02:11:36;101492.97;;;4.40;100.00
20696;BME280;10507;52.754;13.040;2023-04-30T02:14:03;101486.75;;;4.41;100.00
20696;BME280;10507;52.754;13.040;2023-04-30T02:16:33;101489.41;;;4.41;100.00
20696;BME280;10507;52.754;13.040;2023-04-30T02:19:01;101492.91;;;4.45;100.00
20696;BME280;10507;52.754;13.040;2023-04-30T02:21:29;101478.81;;;4.41;100.00
20696;BME280;10507;52.754;13.040;2023-04-30T02:23:57;101472.72;;;4.37;100.00
20696;BME280;10507;52.754;13.040;2023-04-30T02:26:25;101496.47;;;4.42;100.00
20696;BME280;10507;52.754;13.040;2023-04-30T02:28:53;101508.81;;;4.40;100.00
20696;BME280;10507;52.754;13.040;2023-04-30T02:31:21;101498.31;;;4.34;100.00
20696;BME280;10507;52.754;13.040;2023-04-30T02:33:50;101501.91;;;4.27;100.00
20696;BME280;10507;52.754;13.040;2023-04-30T02:36:18;101512.50;;;4.24;100.00
20696;BME280;10507;52.754;13.040;2023-04-30T02:38:46;101524.06;;;4.13;100.00
20696;BME280;10507;52.754;13.040;2023-04-30T02:41:14;101532.00;;;4.13;100.00
20696;BME280;10507;52.754;13.040;2023-04-30T02:43:42;101553.09;;;4.16;100.00
20696;BME280;10507;52.754;13.040;2023-04-30T02:46:10;101559.28;;;4.14;100.00
20696;BME280;10507;52.754;13.040;2023-04-30T02:48:38;101565.47;;;4.10;100.00
20696;BME280;10507;52.754;13.040;2023-04-30T02:51:07;101563.75;;;4.07;100.00
20696;BME280;10507;52.754;13.040;2023-04-30T02:53:37;101574.34;;;4.04;100.00
20696;BME280;10507;52.754;13.040;2023-04-30T02:56:06;101563.81;;;4.00;100.00
20696;BME280;10507;52.754;13.040;2023-04-30T02:58:33;101569.16;;;3.95;100.00
20696;BME280;10507;52.754;13.040;2023-04-30T03:01:02;101566.56;;;3.86;100.00
20696;BME280;10507;52.754;13.040;2023-04-30T03:03:30;101578.00;;;3.85;100.00
20696;BME280;10507;52.754;13.040;2023-04-30T03:05:57;101589.44;;;3.85;100.00
20696;BME280;10507;52.754;13.040;2023-04-30T03:08:27;101586.84;;;3.84;100.00
20696;BME280;10507;52.754;13.040;2023-04-30T03:10:55;101593.91;;;3.82;100.00
20696;BME280;10507;52.754;13.040;2023-04-30T03:13:22;101592.16;;;3.78;100.00
20696;BME280;10507;52.754;13.040;2023-04-30T03:15:56;101584.25;;;3.73;100.00
20696;BME280;10507;52.754;13.040;2023-04-30T03:18:25;101599.22;;;3.75;100.00
20696;BME280;10507;52.754;13.040;2023-04-30T03:20:53;101608.03;;;3.71;100.00
20696;BME280;10507;52.754;13.040;2023-04-30T03:23:21;101600.16;;;3.68;100.00
20696;BME280;10507;52.754;13.040;2023-04-30T03:25:50;101609.81;;;3.69;100.00
20696;BME280;10507;52.754;13.040;2023-04-30T03:28:18;101607.19;;;3.65;100.00
20696;BME280;10507;52.754;13.040;2023-04-30T03:30:46;101604.59;;;3.63;100.00
20696;BME280;10507;52.754;13.040;2023-04-30T03:33:14;101601.94;;;3.59;100.00
20696;BME280;10507;52.754;13.040;2023-04-30T03:35:41;101601.97;;;3.54;100.00
20696;BME280;10507;52.754;13.040;2023-04-30T03:38:09;101613.44;;;3.53;100.00
20696;BME280;10507;52.754;13.040;2023-04-30T03:40:37;101608.16;;;3.51;100.00
20696;BME280;10507;52.754;13.040;2023-04-30T03:43:06;101625.72;;;3.54;100.00
20696;BME280;10507;52.754;13.040;2023-04-30T03:45:34;101621.34;;;3.53;100.00
20696;BME280;10507;52.754;13.040;2023-04-30T03:48:02;101624.88;;;3.53;100.00
20696;BME280;10507;52.754;13.040;2023-04-30T03:50:30;101638.91;;;3.59;100.00
20696;BME280;10507;52.754;13.040;2023-04-30T03:52:58;101641.56;;;3.63;100.00
20696;BME280;10507;52.754;13.040;2023-04-30T03:55:27;101653.84;;;3.70;100.00
20696;BME280;10507;52.754;13.040;2023-04-30T03:57:55;101643.25;;;3.73;100.00
20696;BME280;10507;52.754;13.040;2023-04-30T04:00:25;101635.28;;;3.77;100.00
20696;BME280;10507;52.754;13.040;2023-04-30T04:02:53;101638.75;;;3.83;100.00
20696;BME280;10507;52.754;13.040;2023-04-30T04:05:21;101633.41;;;3.95;100.00
20696;BME280;10507;52.754;13.040;2023-04-30T04:07:49;101600.88;;;3.89;100.00
20696;BME280;10507;52.754;13.040;2023-04-30T04:10:17;101609.69;;;3.91;100.00
20696;BME280;10507;52.754;13.040;2023-04-30T04:12:45;101620.22;;;3.97;100.00
20696;BME280;10507;52.754;13.040;2023-04-30T04:15:13;101628.06;;;4.05;100.00
20696;BME280;10507;52.754;13.040;2023-04-30T04:17:42;101633.28;;;4.14;100.00
20696;BME280;10507;52.754;13.040;2023-04-30T04:20:11;101613.91;;;4.13;100.00
20696;BME280;10507;52.754;13.040;2023-04-30T04:22:39;101622.66;;;4.20;100.00
20696;BME280;10507;52.754;13.040;2023-04-30T04:25:08;101609.41;;;4.25;100.00
20696;BME280;10507;52.754;13.040;2023-04-30T04:27:36;101635.75;;;4.34;100.00
20696;BME280;10507;52.754;13.040;2023-04-30T04:30:05;101620.78;;;4.37;100.00
20696;BME280;10507;52.754;13.040;2023-04-30T04:32:32;101620.69;;;4.45;100.00
20696;BME280;10507;52.754;13.040;2023-04-30T04:35:14;101607.44;;;4.48;100.00
20696;BME280;10507;52.754;13.040;2023-04-30T04:37:42;101592.47;;;4.47;100.00
20696;BME280;10507;52.754;13.040;2023-04-30T04:40:10;101619.69;;;4.58;100.00
20696;BME280;10507;52.754;13.040;2023-04-30T04:42:39;101615.22;;;4.64;100.00
20696;BME280;10507;52.754;13.040;2023-04-30T04:45:08;101598.47;;;4.62;100.00
20696;BME280;10507;52.754;13.040;2023-04-30T04:47:36;101590.56;;;4.62;100.00
20696;BME280;10507;52.754;13.040;2023-04-30T04:50:05;101609.88;;;4.71;100.00
20696;BME280;10507;52.754;13.040;2023-04-30T04:52:35;101631.81;;;4.81;100.00
20696;BME280;10507;52.754;13.040;2023-04-30T04:55:05;101649.19;;;5.07;100.00
20696;BME280;10507;52.754;13.040;2023-04-30T04:57:34;101668.19;;;5.41;100.00
20696;BME280;10507;52.754;13.040;2023-04-30T05:00:02;101665.66;;;5.98;98.67
20696;BME280;10507;52.754;13.040;2023-04-30T05:02:31;101631.34;;;6.45;97.02
20696;BME280;10507;52.754;13.040;2023-04-30T05:04:59;101552.06;;;6.76;95.41
20696;BME280;10507;52.754;13.040;2023-04-30T05:07:28;101497.72;;;6.94;93.70
20696;BME280;10507;52.754;13.040;2023-04-30T05:10:02;101528.03;;;7.65;91.37
20696;BME280;10507;52.754;13.040;2023-04-30T05:12:29;101448.22;;;8.35;88.97
20696;BME280;10507;52.754;13.040;2023-04-30T05:14:57;101474.00;;;8.95;87.44
20696;BME280;10507;52.754;13.040;2023-04-30T05:17:25;101357.81;;;9.46;84.21
20696;BME280;10507;52.754;13.040;2023-04-30T05:19:53;101282.56;;;10.59;79.99
20696;BME280;10507;52.754;13.040;2023-04-30T05:22:21;101129.69;;;10.95;76.98
20696;BME280;10507;52.754;13.040;2023-04-30T05:24:49;100942.16;;;10.87;75.59
20696;BME280;10507;52.754;13.040;2023-04-30T05:27:19;101009.72;;;11.28;75.42
20696;BME280;10507;52.754;13.040;2023-04-30T05:29:47;100873.22;;;10.76;74.95
20696;BME280;10507;52.754;13.040;2023-04-30T05:32:15;101021.75;;;11.18;74.61
20696;BME280;10507;52.754;13.040;2023-04-30T05:34:43;101146.19;;;12.02;73.08
20696;BME280;10507;52.754;13.040;2023-04-30T05:37:11;100931.84;;;12.07;72.03
20696;BME280;10507;52.754;13.040;2023-04-30T05:39:40;101062.88;;;12.62;71.07
20696;BME280;10507;52.754;13.040;2023-04-30T05:42:07;100902.88;;;12.48;70.55
20696;BME280;10507;52.754;13.040;2023-04-30T05:44:37;100881.00;;;12.74;70.02
20696;BME280;10507;52.754;13.040;2023-04-30T05:47:04;100915.81;;;12.74;70.42
20696;BME280;10507;52.754;13.040;2023-04-30T05:49:32;101034.00;;;12.85;70.97
20696;BME280;10507;52.754;13.040;2023-04-30T05:52:01;101133.75;;;13.74;68.93
20696;BME280;10507;52.754;13.040;2023-04-30T05:54:30;101013.88;;;13.75;68.33
20696;BME280;10507;52.754;13.040;2023-04-30T05:56:58;101029.34;;;14.31;66.42
20696;BME280;10507;52.754;13.040;2023-04-30T05:59:26;101000.78;;;14.30;67.34
20696;BME280;10507;52.754;13.040;2023-04-30T06:01:56;100990.97;;;14.60;65.78
20696;BME280;10507;52.754;13.040;2023-04-30T06:04:24;100744.75;;;13.72;66.82
20696;BME280;10507;52.754;13.040;2023-04-30T06:06:52;100783.50;;;14.11;65.94
20696;BME280;10507;52.754;13.040;2023-04-30T06:09:20;100681.50;;;13.40;67.23
20696;BME280;10507;52.754;13.040;2023-04-30T06:11:48;100649.53;;;12.76;67.99
20696;BME280;10507;52.754;13.040;2023-04-30T06:14:17;100887.72;;;13.44;68.64
20696;BME280;10507;52.754;13.040;2023-04-30T06:16:49;100635.53;;;13.46;66.00
20696;BME280;10507;52.754;13.040;2023-04-30T06:19:19;100542.34;;;12.62;66.73
20696;BME280;10507;52.754;13.040;2023-04-30T06:21:47;100682.75;;;13.18;65.52
20696;BME280;10507;52.754;13.040;2023-04-30T06:24:15;100501.59;;;12.71;65.85
20696;BME280;10507;52.754;13.040;2023-04-30T06:26:43;100476.44;;;12.15;66.28
20696;BME280;10507;52.754;13.040;2023-04-30T06:29:11;100811.59;;;12.85;66.39
20696;BME280;10507;52.754;13.040;2023-04-30T06:31:39;100755.88;;;13.06;65.62
20696;BME280;10507;52.754;13.040;2023-04-30T06:34:08;100712.84;;;13.68;64.25
20696;BME280;10507;52.754;13.040;2023-04-30T06:36:37;100642.00;;;13.99;62.73
20696;BME280;10507;52.754;13.040;2023-04-30T06:39:05;100507.34;;;13.22;64.06
20696;BME280;10507;52.754;13.040;2023-04-30T06:41:33;100598.41;;;13.67;62.34
20696;BME280;10507;52.754;13.040;2023-04-30T06:44:01;100654.28;;;13.01;64.61
20696;BME280;10507;52.754;13.040;2023-04-30T06:46:28;100516.16;;;12.81;63.54
20696;BME280;10507;52.754;13.040;2023-04-30T06:48:56;100449.75;;;12.72;63.34
20696;BME280;10507;52.754;13.040;2023-04-30T06:51:24;100489.69;;;12.46;64.71
20696;BME280;10507;52.754;13.040;2023-04-30T06:53:54;100447.13;;;12.27;63.10
20696;BME280;10507;52.754;13.040;2023-04-30T06:56:22;100446.09;;;12.59;63.73
20696;BME280;10507;52.754;13.040;2023-04-30T06:58:50;100793.34;;;13.68;62.62
20696;BME280;10507;52.754;13.040;2023-04-30T07:01:19;100603.22;;;13.47;61.74
20696;BME280;10507;52.754;13.040;2023-04-30T07:03:47;100554.09;;;13.33;62.01
20696;BME280;10507;52.754;13.040;2023-04-30T07:06:15;100475.84;;;13.67;60.21
20696;BME280;10507;52.754;13.040;2023-04-30T07:08:43;100368.09;;;13.61;59.42
20696;BME280;10507;52.754;13.040;2023-04-30T07:11:13;100463.41;;;13.10;60.84
20696;BME280;10507;52.754;13.040;2023-04-30T07:13:41;100455.81;;;13.46;60.34
20696;BME280;10507;52.754;13.040;2023-04-30T07:16:08;100664.59;;;14.51;58.29
20696;BME280;10507;52.754;13.040;2023-04-30T07:18:37;100428.53;;;14.06;58.59
20696;BME280;10507;52.754;13.040;2023-04-30T07:21:06;100280.00;;;14.19;56.77
20696;BME280;10507;52.754;13.040;2023-04-30T07:23:34;100418.22;;;14.00;58.20
20696;BME280;10507;52.754;13.040;2023-04-30T07:26:02;100217.25;;;13.57;57.94
20696;BME280;10507;52.754;13.040;2023-04-30T07:28:32;100711.66;;;14.71;59.38
20696;BME280;10507;52.754;13.040;2023-04-30T07:31:00;100734.31;;;15.47;57.23
20696;BME280;10507;52.754;13.040;2023-04-30T07:33:27;100682.47;;;15.83;55.95
20696;BME280;10507;52.754;13.040;2023-04-30T07:35:56;100702.66;;;16.14;55.34
20696;BME280;10507;52.754;13.040;2023-04-30T07:38:24;100436.78;;;15.31;55.28
20696;BME280;10507;52.754;13.040;2023-04-30T07:40:52;100355.47;;;15.15;55.71
20696;BME280;10507;52.754;13.040;2023-04-30T07:43:20;100425.56;;;14.49;57.68
20696;BME280;10507;52.754;13.040;2023-04-30T07:45:49;100380.53;;;14.91;56.66
20696;BME280;10507;52.754;13.040;2023-04-30T07:48:18;100413.75;;;14.90;57.23
20696;BME280;10507;52.754;13.040;2023-04-30T07:50:47;100501.09;;;15.34;56.36
20696;BME280;10507;52.754;13.040;2023-04-30T07:53:18;100543.81;;;15.52;56.09
20696;BME280;10507;52.754;13.040;2023-04-30T07:55:46;100354.81;;;15.24;55.47
20696;BME280;10507;52.754;13.040;2023-04-30T07:58:14;100257.06;;;14.88;55.41
20696;BME280;10507;52.754;13.040;2023-04-30T08:00:41;100561.59;;;15.16;57.81
20696;BME280;10507;52.754;13.040;2023-04-30T08:03:11;100509.75;;;15.14;57.48
20696;BME280;10507;52.754;13.040;2023-04-30T08:05:39;100321.56;;;14.39;57.44
20696;BME280;10507;52.754;13.040;2023-04-30T08:08:07;100609.91;;;15.30;57.36
20696;BME280;10507;52.754;13.040;2023-04-30T08:10:35;100367.59;;;14.96;56.39
20696;BME280;10507;52.754;13.040;2023-04-30T08:13:03;100201.63;;;14.63;54.43
20696;BME280;10507;52.754;13.040;2023-04-30T08:15:36;99914.91;;;13.59;54.58
20696;BME280;10507;52.754;13.040;2023-04-30T08:18:05;100188.50;;;13.59;57.32
20696;BME280;10507;52.754;13.040;2023-04-30T08:20:35;100050.13;;;13.05;57.53
20696;BME280;10507;52.754;13.040;2023-04-30T08:23:04;100454.97;;;13.72;59.02
20696;BME280;10507;52.754;13.040;2023-04-30T08:25:32;100594.59;;;14.12;59.52
20696;BME280;10507;52.754;13.040;2023-04-30T08:28:00;100176.63;;;13.23;58.36
20696;BME280;10507;52.754;13.040;2023-04-30T08:30:28;100413.91;;;13.58;59.60
20696;BME280;10507;52.754;13.040;2023-04-30T08:32:56;100257.25;;;13.20;58.17
20696;BME280;10507;52.754;13.040;2023-04-30T08:35:24;100151.88;;;12.67;58.93
20696;BME280;10507;52.754;13.040;2023-04-30T08:37:56;100197.31;;;12.27;59.92
20696;BME280;10507;52.754;13.040;2023-04-30T08:40:25;100235.91;;;12.37;60.91
20696;BME280;10507;52.754;13.040;2023-04-30T08:43:09;100374.28;;;12.37;61.51
20696;BME280;10507;52.754;13.040;2023-04-30T08:45:38;100421.91;;;12.46;62.05
20696;BME280;10507;52.754;13.040;2023-04-30T08:48:09;100356.75;;;12.17;62.74
20696;BME280;10507;52.754;13.040;2023-04-30T08:50:39;100524.56;;;12.61;61.64
20696;BME280;10507;52.754;13.040;2023-04-30T08:53:09;100612.13;;;12.75;63.50
20696;BME280;10507;52.754;13.040;2023-04-30T08:55:38;100436.34;;;12.72;61.24
20696;BME280;10507;52.754;13.040;2023-04-30T08:58:07;100200.63;;;12.45;59.28
20696;BME280;10507;52.754;13.040;2023-04-30T09:00:37;100145.00;;;11.94;59.72
20696;BME280;10507;52.754;13.040;2023-04-30T09:03:06;100438.78;;;12.18;62.24
20696;BME280;10507;52.754;13.040;2023-04-30T09:05:40;100388.09;;;12.15;62.26
20696;BME280;10507;52.754;13.040;2023-04-30T09:08:15;100292.16;;;12.09;60.68
20696;BME280;10507;52.754;13.040;2023-04-30T09:10:44;100357.16;;;12.25;59.68
20696;BME280;10507;52.754;13.040;2023-04-30T09:13:12;100330.56;;;12.07;60.84
20696;BME280;10507;52.754;13.040;2023-04-30T09:15:40;100291.59;;;12.18;59.78
20696;BME280;10507;52.754;13.040;2023-04-30T09:18:12;100494.31;;;12.59;61.31
20696;BME280;10507;52.754;13.040;2023-04-30T09:21:01;100539.78;;;12.75;61.60
20696;BME280;10507;52.754;13.040;2023-04-30T09:23:30;100353.53;;;12.55;59.45
20696;BME280;10507;52.754;13.040;2023-04-30T09:25:58;100445.63;;;12.66;60.45
20696;BME280;10507;52.754;13.040;2023-04-30T09:28:26;100425.63;;;12.86;59.15
20696;BME280;10507;52.754;13.040;2023-04-30T09:30:56;100352.56;;;12.70;60.14
20696;BME280;10507;52.754;13.040;2023-04-30T09:33:23;100155.13;;;12.31;58.58
20696;BME280;10507;52.754;13.040;2023-04-30T09:35:51;100395.81;;;12.50;60.19
20696;BME280;10507;52.754;13.040;2023-04-30T09:38:27;100363.75;;;12.62;59.64
20696;BME280;10507;52.754;13.040;2023-04-30T09:40:59;100259.22;;;12.50;58.99
20696;BME280;10507;52.754;13.040;2023-04-30T09:43:28;100298.63;;;12.47;59.66
20696;BME280;10507;52.754;13.040;2023-04-30T09:45:57;100270.84;;;12.36;60.28
20696;BME280;10507;52.754;13.040;2023-04-30T09:48:26;100087.00;;;11.95;58.90
20696;BME280;10507;52.754;13.040;2023-04-30T09:50:55;100154.34;;;12.01;59.12
20696;BME280;10507;52.754;13.040;2023-04-30T09:53:23;100208.75;;;12.02;60.07
20696;BME280;10507;52.754;13.040;2023-04-30T09:55:51;100240.56;;;12.06;59.14
20696;BME280;10507;52.754;13.040;2023-04-30T09:58:24;100208.06;;;11.98;59.14
20696;BME280;10507;52.754;13.040;2023-04-30T10:00:57;100440.34;;;12.22;61.03
20696;BME280;10507;52.754;13.040;2023-04-30T10:03:26;100627.50;;;12.71;62.61
20696;BME280;10507;52.754;13.040;2023-04-30T10:05:54;100216.09;;;11.98;61.21
20696;BME280;10507;52.754;13.040;2023-04-30T10:08:26;100534.25;;;12.33;63.75
20696;BME280;10507;52.754;13.040;2023-04-30T10:10:57;100594.28;;;12.59;63.28
20696;BME280;10507;52.754;13.040;2023-04-30T10:13:30;100564.66;;;12.62;63.34
20696;BME280;10507;52.754;13.040;2023-04-30T10:16:05;100589.84;;;12.88;62.54
20696;BME280;10507;52.754;13.040;2023-04-30T10:18:36;100262.69;;;12.37;59.93
20696;BME280;10507;52.754;13.040;2023-04-30T10:21:06;100250.56;;;12.17;60.35
20696;BME280;10507;52.754;13.040;2023-04-30T10:23:38;100376.88;;;12.38;60.70
20696;BME280;10507;52.754;13.040;2023-04-30T10:26:07;100389.47;;;12.51;60.93
20696;BME280;10507;52.754;13.040;2023-04-30T10:28:37;100457.28;;;12.80;60.78
20696;BME280;10507;52.754;13.040;2023-04-30T10:31:06;100505.63;;;12.93;61.54
20696;BME280;10507;52.754;13.040;2023-04-30T10:33:43;100479.63;;;12.80;61.65
20696;BME280;10507;52.754;13.040;2023-04-30T10:36:22;100167.66;;;12.44;58.67
20696;BME280;10507;52.754;13.040;2023-04-30T10:38:51;100466.69;;;12.87;60.57
20696;BME280;10507;52.754;13.040;2023-04-30T10:41:19;100474.34;;;12.93;61.24
20696;BME280;10507;52.754;13.040;2023-04-30T10:43:49;100240.91;;;12.71;59.09
20696;BME280;10507;52.754;13.040;2023-04-30T10:46:23;100444.97;;;12.92;60.24
20696;BME280;10507;52.754;13.040;2023-04-30T10:48:52;100330.81;;;12.75;59.77
20696;BME280;10507;52.754;13.040;2023-04-30T10:51:20;100386.19;;;12.88;59.89
20696;BME280;10507;52.754;13.040;2023-04-30T10:53:50;100370.25;;;12.87;60.29
20696;BME280;10507;52.754;13.040;2023-04-30T10:56:36;100211.97;;;12.48;59.92
20696;BME280;10507;52.754;13.040;2023-04-30T10:59:05;100350.84;;;12.55;61.54
20696;BME280;10507;52.754;13.040;2023-04-30T11:01:53;100345.09;;;12.61;60.02
20696;BME280;10507;52.754;13.040;2023-04-30T11:04:22;100389.88;;;12.59;61.37
20696;BME280;10507;52.754;13.040;2023-04-30T11:07:01;100351.78;;;12.68;60.82
20696;BME280;10507;52.754;13.040;2023-04-30T11:09:39;100380.41;;;12.67;60.93
20696;BME280;10507;52.754;13.040;2023-04-30T11:12:12;100312.13;;;12.60;60.35
20696;BME280;10507;52.754;13.040;2023-04-30T11:14:43;100384.69;;;12.70;61.61
20696;BME280;10507;52.754;13.040;2023-04-30T11:17:12;100274.53;;;12.47;59.53
20696;BME280;10507;52.754;13.040;2023-04-30T11:19:48;100493.88;;;12.81;62.34
20696;BME280;10507;52.754;13.040;2023-04-30T11:22:18;100554.28;;;13.01;62.29
20696;BME280;10507;52.754;13.040;2023-04-30T11:24:52;100334.94;;;12.80;59.72
20696;BME280;10507;52.754;13.040;2023-04-30T11:27:21;100387.44;;;12.97;60.34
20696;BME280;10507;52.754;13.040;2023-04-30T11:29:51;100457.56;;;13.18;60.96
20696;BME280;10507;52.754;13.040;2023-04-30T11:32:22;100434.19;;;13.20;60.11
20696;BME280;10507;52.754;13.040;2023-04-30T11:34:50;100503.34;;;13.29;61.05
20696;BME280;10507;52.754;13.040;2023-04-30T11:37:19;100532.28;;;13.39;61.00
20696;BME280;10507;52.754;13.040;2023-04-30T11:39:49;100332.75;;;13.14;59.29
20696;BME280;10507;52.754;13.040;2023-04-30T11:42:18;100405.28;;;13.25;59.75
20696;BME280;10507;52.754;13.040;2023-04-30T11:44:46;100500.28;;;13.36;61.25
20696;BME280;10507;52.754;13.040;2023-04-30T11:47:15;100451.06;;;13.37;60.35
20696;BME280;10507;52.754;13.040;2023-04-30T11:49:43;100367.75;;;13.25;59.91
20696;BME280;10507;52.754;13.040;2023-04-30T11:52:12;100319.44;;;13.13;59.65
20696;BME280;10507;52.754;13.040;2023-04-30T11:54:40;100403.97;;;13.04;61.56
20696;BME280;10507;52.754;13.040;2023-04-30T11:57:07;100507.53;;;13.19;61.93
20696;BME280;10507;52.754;13.040;2023-04-30T11:59:39;100420.03;;;13.18;61.04
20696;BME280;10507;52.754;13.040;2023-04-30T12:02:08;100409.78;;;13.39;59.38
20696;BME280;10507;52.754;13.040;2023-04-30T12:04:42;100413.75;;;13.46;59.72
20696;BME280;10507;52.754;13.040;2023-04-30T12:07:11;100363.81;;;13.31;60.17
20696;BME280;10507;52.754;13.040;2023-04-30T12:09:52;100356.06;;;13.26;60.06
20696;BME280;10507;52.754;13.040;2023-04-30T12:12:27;100358.47;;;13.31;59.89
20696;BME280;10507;52.754;13.040;2023-04-30T12:14:55;100299.81;;;13.12;59.75
20696;BME280;10507;52.754;13.040;2023-04-30T12:17:33;100236.59;;;12.95;59.78
20696;BME280;10507;52.754;13.040;2023-04-30T12:20:02;100403.75;;;13.21;60.72
20696;BME280;10507;52.754;13.040;2023-04-30T12:22:31;100375.22;;;13.35;59.42
20696;BME280;10507;52.754;13.040;2023-04-30T12:24:59;100347.78;;;13.44;59.37
20696;BME280;10507;52.754;13.040;2023-04-30T12:27:27;100380.50;;;13.49;59.07
20696;BME280;10507;52.754;13.040;2023-04-30T12:29:55;100170.63;;;13.20;58.20
20696;BME280;10507;52.754;13.040;2023-04-30T12:32:23;100177.25;;;13.01;58.35
20696;BME280;10507;52.754;13.040;2023-04-30T12:34:56;100329.63;;;13.20;59.69
20696;BME280;10507;52.754;13.040;2023-04-30T12:37:28;100307.59;;;13.29;59.12
20696;BME280;10507;52.754;13.040;2023-04-30T12:39:56;100343.66;;;13.38;59.38
20696;BME280;10507;52.754;13.040;2023-04-30T12:42:24;100277.94;;;13.33;59.06
20696;BME280;10507;52.754;13.040;2023-04-30T12:44:52;100402.06;;;13.47;60.12
20696;BME280;10507;52.754;13.040;2023-04-30T12:47:23;100410.06;;;13.62;60.02
20696;BME280;10507;52.754;13.040;2023-04-30T12:49:51;100324.72;;;13.54;59.12
20696;BME280;10507;52.754;13.040;2023-04-30T12:52:22;100251.78;;;13.49;57.93